Terminal Aerodrome Forecast
Issued by NWS Pueblo, CO

Home | Current Version | Previous Version | Text Only | Print | Product List | Glossary On
Versions: 1 2 3 4 5 6 7 8 9 10 11 12 13 14 15 16
000
FTUS45 KPUB 281123
TAFALS
TAF
KALS 281123Z 2812/2912 VRB05KT P6SM SKC
     FM281800 20007KT P6SM FEW110 SCT200
     FM282100 26010KT P6SM SCT110 SCT200
     FM290300 15008KT P6SM FEW110 SCT200=

USA.gov is the U.S. government's official web portal to all federal, state and local government web resources and services.